createdAt,value
2019-03-22T00:00:00.358Z,102.07
2019-03-22T00:02:27.040Z,92.93
2019-03-22T00:04:53.778Z,78.73
2019-03-22T00:07:20.568Z,98.53
2019-03-22T00:09:47.259Z,89.03
2019-03-22T00:12:13.905Z,101.67
2019-03-22T00:14:40.685Z,104.20
2019-03-22T00:17:07.420Z,100.73
2019-03-22T00:19:34.132Z,91.13
2019-03-22T00:22:00.907Z,110.97
2019-03-22T00:24:27.608Z,102.83
2019-03-22T00:26:54.228Z,102.80
2019-03-22T00:29:20.909Z,104.23
2019-03-22T00:31:47.614Z,109.60
2019-03-22T00:34:14.346Z,100.83
2019-03-22T00:36:41.136Z,108.03
2019-03-22T00:39:07.832Z,98.67
2019-03-22T00:41:34.483Z,90.63
2019-03-22T00:44:01.251Z,101.07
2019-03-22T00:46:27.947Z,114.30
2019-03-22T00:48:54.577Z,117.10
2019-03-22T00:51:21.381Z,106.17
2019-03-22T00:53:48.106Z,109.63
2019-03-22T00:56:14.843Z,99.70
2019-03-22T00:58:41.645Z,113.43
2019-03-22T01:01:08.375Z,109.73
2019-03-22T01:03:35.103Z,105.20
2019-03-22T01:06:02.211Z,118.50
2019-03-22T01:08:28.949Z,123.20
2019-03-22T01:10:55.677Z,109.70
2019-03-22T01:13:22.459Z,106.50
2019-03-22T01:15:49.187Z,114.50
2019-03-22T01:18:15.909Z,102.27
2019-03-22T01:20:42.703Z,125.07
2019-03-22T01:23:09.397Z,118.10
2019-03-22T01:25:36.125Z,116.50
2019-03-22T01:28:02.873Z,111.33
2019-03-22T01:30:29.605Z,106.83
2019-03-22T01:32:56.315Z,117.07
2019-03-22T01:35:23.111Z,110.03
2019-03-22T01:37:49.835Z,120.10
2019-03-22T01:40:16.559Z,117.90
2019-03-22T01:42:43.348Z,120.27
2019-03-22T01:45:10.055Z,108.90
2019-03-22T01:47:36.752Z,116.87
2019-03-22T01:50:03.478Z,114.20
2019-03-22T01:52:30.163Z,124.07
2019-03-22T01:54:56.866Z,113.10
2019-03-22T01:57:23.583Z,95.60
2019-03-22T01:59:50.282Z,113.23
2019-03-22T02:02:17.024Z,117.43
2019-03-22T02:04:43.802Z,116.10
2019-03-22T02:07:10.514Z,108.83
2019-03-22T02:09:37.233Z,113.60
2019-03-22T02:12:04.025Z,97.10
2019-03-22T02:14:30.759Z,110.47
2019-03-22T02:16:57.458Z,112.03
2019-03-22T02:19:24.226Z,107.57
2019-03-22T02:21:50.948Z,110.37
2019-03-22T02:24:17.656Z,121.50
2019-03-22T02:26:44.442Z,117.20
2019-03-22T02:29:11.131Z,112.53
2019-03-22T02:31:37.797Z,98.83
2019-03-22T02:34:04.540Z,103.30
2019-03-22T02:36:31.288Z,94.43
2019-03-22T02:38:57.989Z,107.83
2019-03-22T02:41:24.779Z,107.77
2019-03-22T02:43:54.610Z,104.33
2019-03-22T02:46:19.857Z,100.83
2019-03-22T02:48:46.629Z,103.80
2019-03-22T02:51:13.330Z,95.97
2019-03-22T02:53:39.963Z,96.03
2019-03-22T02:56:06.797Z,91.33
2019-03-22T02:58:33.517Z,105.63
2019-03-22T03:01:00.257Z,100.83
2019-03-22T03:03:27.028Z,91.17
2019-03-22T03:05:53.734Z,83.80
2019-03-22T03:08:20.444Z,94.60
2019-03-22T03:10:47.201Z,101.60
2019-03-22T03:13:13.938Z,98.87
2019-03-22T03:15:40.667Z,114.43
2019-03-22T03:18:07.410Z,113.33
2019-03-22T03:20:34.162Z,105.03
2019-03-22T03:23:00.899Z,104.70
2019-03-22T03:25:27.660Z,106.77
2019-03-22T03:27:54.365Z,109.07
2019-03-22T03:30:21.146Z,115.83
2019-03-22T03:32:47.866Z,113.57
2019-03-22T03:35:14.635Z,117.90
2019-03-22T03:37:41.317Z,116.43
2019-03-22T03:40:08.088Z,119.17
2019-03-22T03:42:34.787Z,112.37
2019-03-22T03:45:01.489Z,108.70
2019-03-22T03:47:28.267Z,104.03
2019-03-22T03:49:54.988Z,96.27
2019-03-22T03:52:21.702Z,103.30
2019-03-22T03:54:48.399Z,97.87
2019-03-22T03:57:15.092Z,98.17
2019-03-22T03:59:41.835Z,82.70
2019-03-22T04:02:08.766Z,89.83
2019-03-22T04:04:35.465Z,84.27
2019-03-22T04:07:02.152Z,93.80
2019-03-22T04:09:28.898Z,92.67
2019-03-22T04:11:55.621Z,80.63
2019-03-22T04:14:22.309Z,88.73
2019-03-22T04:16:49.272Z,81.07
2019-03-22T04:19:15.966Z,82.67
2019-03-22T04:21:42.663Z,74.60
2019-03-22T04:24:09.375Z,80.40
2019-03-22T04:26:36.070Z,74.03
2019-03-22T04:29:07.849Z,80.73
2019-03-22T04:31:31.279Z,78.27
2019-03-22T04:33:58.009Z,84.20
2019-03-22T04:36:24.867Z,86.63
2019-03-22T04:38:51.654Z,73.63
2019-03-22T04:41:18.443Z,77.47
2019-03-22T04:43:45.181Z,81.50
2019-03-22T04:46:12.025Z,63.70
2019-03-22T04:48:38.837Z,72.63
2019-03-22T04:51:05.558Z,63.47
2019-03-22T04:53:32.338Z,70.63
2019-03-22T04:55:59.187Z,63.47
2019-03-22T04:58:26.027Z,66.23
2019-03-22T05:00:52.864Z,61.83
2019-03-22T05:03:19.707Z,66.13
2019-03-22T05:05:46.446Z,66.73
2019-03-22T05:08:13.297Z,67.43
2019-03-22T05:10:40.141Z,71.83
2019-03-22T05:13:06.864Z,86.23
2019-03-22T05:15:33.604Z,71.83
2019-03-22T05:18:00.458Z,76.83
2019-03-22T05:20:27.189Z,76.47
2019-03-22T05:22:54.032Z,81.20
2019-03-22T05:25:20.785Z,76.07
2019-03-22T05:27:47.519Z,76.90
2019-03-22T05:30:14.300Z,84.87
2019-03-22T05:32:41.014Z,81.20
2019-03-22T05:35:07.720Z,81.47
2019-03-22T05:37:34.443Z,93.93
2019-03-22T05:40:01.142Z,77.50
2019-03-22T05:42:27.967Z,86.47
2019-03-22T05:44:54.741Z,86.33
2019-03-22T05:47:21.467Z,77.63
2019-03-22T05:49:48.194Z,80.27
2019-03-22T05:52:14.944Z,78.33
2019-03-22T05:54:41.667Z,78.70
2019-03-22T05:57:13.271Z,86.97
2019-03-22T05:59:42.587Z,79.97
2019-03-22T06:02:05.195Z,79.63
2019-03-22T06:04:31.921Z,87.70
2019-03-22T06:06:58.672Z,89.93
2019-03-22T06:09:25.325Z,78.23
2019-03-22T06:11:52.051Z,83.07
2019-03-22T06:14:18.835Z,87.23
2019-03-22T06:16:45.530Z,77.33
2019-03-22T06:19:12.227Z,88.97
2019-03-22T06:21:38.902Z,80.50
2019-03-22T06:24:05.552Z,69.73
2019-03-22T06:26:32.288Z,80.50
2019-03-22T06:28:59.083Z,75.73
2019-03-22T06:31:25.780Z,80.60
2019-03-22T06:33:52.483Z,78.10
2019-03-22T06:36:19.243Z,75.90
2019-03-22T06:38:45.866Z,74.80
2019-03-22T06:41:12.571Z,75.13
2019-03-22T06:43:39.408Z,72.30
2019-03-22T06:46:06.098Z,79.83
2019-03-22T06:48:32.832Z,73.67
2019-03-22T06:50:59.619Z,76.90
2019-03-22T06:53:26.382Z,64.03
2019-03-22T06:55:53.049Z,70.57
2019-03-22T06:58:19.837Z,79.47
2019-03-22T07:00:46.528Z,58.90
2019-03-22T07:03:13.182Z,68.03
2019-03-22T07:05:39.944Z,68.70
2019-03-22T07:08:06.785Z,71.97
2019-03-22T07:10:33.522Z,68.53
2019-03-22T07:13:00.268Z,68.00
2019-03-22T07:15:27.002Z,64.43
2019-03-22T07:17:53.738Z,68.90
2019-03-22T07:20:20.591Z,66.20
2019-03-22T07:22:47.293Z,65.37
2019-03-22T07:25:14.067Z,63.67
2019-03-22T07:27:41.118Z,72.80
2019-03-22T07:30:18.168Z,63.77
2019-03-22T07:32:36.324Z,59.90
2019-03-22T07:35:03.334Z,62.27
2019-03-22T07:37:30.128Z,61.70
2019-03-22T07:39:56.956Z,50.80
2019-03-22T07:42:23.754Z,52.57
2019-03-22T07:44:50.487Z,55.23
2019-03-22T07:47:17.212Z,52.30
2019-03-22T07:49:43.994Z,57.60
2019-03-22T07:52:10.713Z,51.33
2019-03-22T07:54:37.439Z,59.07
2019-03-22T07:57:04.584Z,50.90
2019-03-22T07:59:31.282Z,58.80
2019-03-22T08:01:57.976Z,59.60
2019-03-22T08:04:24.696Z,64.60
2019-03-22T08:06:51.423Z,56.23
2019-03-22T08:09:18.118Z,60.03
2019-03-22T08:11:44.914Z,71.10
2019-03-22T08:14:11.615Z,64.83
2019-03-22T08:16:38.351Z,65.43
2019-03-22T08:19:05.164Z,65.80
2019-03-22T08:21:31.867Z,62.23
2019-03-22T08:23:58.598Z,61.10
2019-03-22T08:26:25.389Z,65.60
2019-03-22T08:28:52.132Z,64.00
2019-03-22T08:31:18.790Z,61.37
2019-03-22T08:33:45.503Z,64.00
2019-03-22T08:36:14.868Z,63.60
2019-03-22T08:38:40.559Z,67.10
2019-03-22T08:41:07.304Z,67.50
2019-03-22T08:43:34.079Z,55.03
2019-03-22T08:46:00.735Z,61.90
2019-03-22T08:48:27.499Z,57.93
2019-03-22T08:50:54.194Z,62.57
2019-03-22T08:53:20.817Z,58.60
2019-03-22T08:55:47.597Z,76.20
2019-03-22T08:58:14.310Z,65.50
2019-03-22T09:00:41.042Z,57.57
2019-03-22T09:03:07.819Z,56.20
2019-03-22T09:05:34.652Z,59.47
2019-03-22T09:08:01.354Z,51.03
2019-03-22T09:10:28.158Z,52.03
2019-03-22T09:12:54.835Z,60.30
2019-03-22T09:15:21.516Z,54.23
2019-03-22T09:17:48.295Z,53.23
2019-03-22T09:20:15.003Z,48.27
2019-03-22T09:22:41.792Z,43.67
2019-03-22T09:25:08.534Z,44.23
2019-03-22T09:27:36.524Z,43.30
2019-03-22T09:30:03.439Z,37.53
2019-03-22T09:32:30.212Z,38.53
2019-03-22T09:34:59.646Z,41.47
2019-03-22T09:37:25.195Z,36.63
2019-03-22T09:39:51.949Z,34.10
2019-03-22T09:42:18.702Z,35.10
2019-03-22T09:44:45.735Z,34.90
2019-03-22T09:47:12.584Z,33.03
2019-03-22T09:49:39.275Z,34.67
2019-03-22T09:52:05.976Z,32.20
2019-03-22T09:54:32.806Z,35.87
2019-03-22T09:56:59.486Z,31.43
2019-03-22T09:59:26.242Z,31.60
2019-03-22T10:01:53.004Z,30.47
2019-03-22T10:04:19.782Z,28.10
2019-03-22T10:06:46.469Z,30.77
2019-03-22T10:09:13.270Z,29.80
2019-03-22T10:11:39.955Z,28.77
2019-03-22T10:14:06.688Z,29.53
2019-03-22T10:16:33.477Z,29.57
2019-03-22T10:19:00.198Z,29.17
2019-03-22T10:21:26.918Z,28.37
2019-03-22T10:23:53.688Z,25.33
2019-03-22T10:26:20.383Z,29.90
2019-03-22T10:28:47.108Z,31.53
2019-03-22T10:31:14.101Z,32.93
2019-03-22T10:33:40.847Z,33.97
2019-03-22T10:36:07.573Z,28.63
2019-03-22T10:38:34.668Z,33.87
2019-03-22T10:41:01.361Z,31.70
2019-03-22T10:43:28.117Z,30.93
2019-03-22T10:45:54.947Z,27.73
2019-03-22T10:48:21.635Z,24.80
2019-03-22T10:50:48.313Z,27.50
2019-03-22T10:53:15.136Z,31.13
2019-03-22T10:55:41.841Z,25.57
2019-03-22T10:58:20.358Z,30.80
2019-03-22T11:00:37.028Z,29.07
2019-03-22T11:03:03.735Z,29.10
2019-03-22T11:05:30.463Z,33.30
2019-03-22T11:07:57.238Z,31.80
2019-03-22T11:10:23.974Z,35.07
2019-03-22T11:12:50.692Z,33.00
2019-03-22T11:15:17.391Z,35.67
2019-03-22T11:17:44.117Z,32.10
2019-03-22T11:20:10.850Z,30.77
2019-03-22T11:22:37.625Z,29.40
2019-03-22T11:25:04.963Z,28.17
2019-03-22T11:27:31.642Z,37.50
2019-03-22T11:29:58.430Z,36.60
2019-03-22T11:32:25.130Z,37.63
2019-03-22T11:34:51.824Z,37.87
2019-03-22T11:37:18.504Z,34.40
2019-03-22T11:39:45.159Z,29.83
2019-03-22T11:42:11.880Z,28.37
2019-03-22T11:44:38.691Z,29.30
2019-03-22T11:47:05.384Z,33.33
2019-03-22T11:49:32.010Z,27.93
2019-03-22T11:51:58.806Z,33.23
2019-03-22T11:54:25.532Z,30.83
2019-03-22T11:56:52.243Z,34.90
2019-03-22T11:59:18.994Z,38.80
2019-03-22T12:01:45.698Z,33.33
2019-03-22T12:04:12.444Z,41.47
2019-03-22T12:06:39.239Z,42.47
2019-03-22T12:09:05.971Z,41.47
2019-03-22T12:11:32.661Z,37.37
2019-03-22T12:13:59.381Z,36.30
2019-03-22T12:16:26.105Z,33.67
2019-03-22T12:18:52.827Z,40.63
2019-03-22T12:21:19.593Z,35.27
2019-03-22T12:23:46.228Z,37.23
2019-03-22T12:26:12.931Z,40.53
2019-03-22T12:28:39.677Z,43.10
2019-03-22T12:31:06.421Z,45.40
2019-03-22T12:33:33.110Z,39.00
2019-03-22T12:35:59.841Z,41.50
2019-03-22T12:38:26.580Z,42.00
2019-03-22T12:40:53.263Z,38.40
2019-03-22T12:43:20.045Z,37.10
2019-03-22T12:45:46.713Z,34.17
2019-03-22T12:48:13.416Z,35.60
2019-03-22T12:50:40.186Z,32.40
2019-03-22T12:53:06.886Z,30.83
2019-03-22T12:55:33.625Z,31.20
2019-03-22T12:58:00.392Z,27.83
2019-03-22T13:00:27.120Z,30.47
2019-03-22T13:02:53.842Z,28.00
2019-03-22T13:05:20.609Z,25.20
2019-03-22T13:07:47.300Z,27.60
2019-03-22T13:10:13.955Z,26.67
2019-03-22T13:12:40.742Z,25.83
2019-03-22T13:15:07.501Z,31.53
2019-03-22T13:17:34.166Z,34.87
2019-03-22T13:20:00.867Z,34.40
2019-03-22T13:22:27.571Z,29.00
2019-03-22T13:24:54.292Z,34.13
2019-03-22T13:27:21.058Z,31.87
2019-03-22T13:29:47.705Z,30.70
2019-03-22T13:32:14.418Z,37.60
2019-03-22T13:34:41.190Z,35.70
2019-03-22T13:37:07.840Z,29.60
2019-03-22T13:39:34.537Z,33.23
2019-03-22T13:42:01.477Z,28.70
2019-03-22T13:44:28.196Z,35.00
2019-03-22T13:46:54.936Z,34.53
2019-03-22T13:49:21.694Z,29.27
2019-03-22T13:51:48.384Z,34.17
2019-03-22T13:54:15.055Z,32.03
2019-03-22T13:56:42.168Z,30.90
2019-03-22T13:59:08.897Z,35.27
2019-03-22T14:01:35.595Z,37.27
2019-03-22T14:04:02.448Z,36.83
2019-03-22T14:06:29.185Z,40.20
2019-03-22T14:08:55.903Z,41.80
2019-03-22T14:11:22.695Z,43.50
2019-03-22T14:13:49.409Z,43.97
2019-03-22T14:16:16.148Z,39.93
2019-03-22T14:18:43.269Z,41.23
2019-03-22T14:21:10.116Z,36.73
2019-03-22T14:23:36.780Z,40.60
2019-03-22T14:26:03.578Z,47.30
2019-03-22T14:28:30.294Z,38.33
2019-03-22T14:30:57.031Z,38.77
2019-03-22T14:33:23.801Z,40.83
2019-03-22T14:35:50.677Z,44.63
2019-03-22T14:38:17.399Z,41.53
2019-03-22T14:40:44.182Z,42.03
2019-03-22T14:43:10.878Z,41.40
2019-03-22T14:45:37.661Z,45.40
2019-03-22T14:48:04.455Z,38.80
2019-03-22T14:50:31.178Z,38.60
2019-03-22T14:52:57.896Z,44.20
2019-03-22T14:55:24.627Z,38.33
2019-03-22T14:57:52.429Z,42.90
2019-03-22T15:00:19.265Z,37.37
2019-03-22T15:02:46.050Z,35.37
2019-03-22T15:05:12.773Z,26.30
2019-03-22T15:07:39.492Z,36.57
2019-03-22T15:10:06.277Z,43.20
2019-03-22T15:12:32.968Z,46.27
2019-03-22T15:15:01.388Z,42.80
2019-03-22T15:17:28.148Z,49.73
2019-03-22T15:19:54.840Z,46.20
2019-03-22T15:22:21.552Z,47.00
2019-03-22T15:24:48.338Z,44.73
2019-03-22T15:27:15.063Z,46.03
2019-03-22T15:29:41.760Z,41.50
2019-03-22T15:32:08.578Z,42.73
2019-03-22T15:34:35.326Z,42.50
2019-03-22T15:37:02.072Z,39.50
2019-03-22T15:39:29.352Z,45.23
2019-03-22T15:41:56.374Z,42.73
2019-03-22T15:46:49.962Z,42.77
2019-03-22T15:49:16.703Z,38.97
2019-03-22T15:51:43.460Z,41.47
2019-03-22T15:54:10.291Z,37.53
2019-03-22T15:56:37.117Z,38.47
2019-03-22T15:59:03.824Z,34.57
2019-03-22T16:01:30.691Z,38.00
2019-03-22T16:03:57.459Z,34.70
2019-03-22T16:06:24.294Z,37.33
2019-03-22T16:08:51.228Z,38.70
2019-03-22T16:11:17.979Z,34.23
2019-03-22T16:13:44.809Z,34.30
2019-03-22T16:16:11.639Z,34.93
2019-03-22T16:18:38.492Z,35.47
2019-03-22T16:21:05.222Z,33.87
2019-03-22T16:23:32.517Z,34.83
2019-03-22T16:25:59.319Z,34.57
2019-03-22T16:28:26.057Z,33.77
2019-03-22T16:30:52.908Z,39.63
2019-03-22T16:33:19.748Z,34.77
2019-03-22T16:35:46.484Z,32.60
2019-03-22T16:38:13.332Z,34.17
2019-03-22T16:40:40.155Z,34.43
2019-03-22T16:43:06.906Z,35.17
2019-03-22T16:45:33.753Z,35.17
2019-03-22T16:48:00.591Z,35.47
2019-03-22T16:50:27.318Z,37.90
2019-03-22T16:52:54.374Z,31.63
2019-03-22T16:55:21.114Z,31.27
2019-03-22T16:57:47.817Z,37.73
2019-03-22T17:00:14.618Z,35.17
2019-03-22T17:02:41.354Z,40.50
2019-03-22T17:05:08.069Z,33.33
2019-03-22T17:07:35.134Z,26.97
2019-03-22T17:10:01.812Z,35.13
2019-03-22T17:12:28.546Z,31.50
2019-03-22T17:14:55.297Z,35.07
2019-03-22T17:17:21.957Z,33.83
2019-03-22T17:19:48.648Z,34.77
2019-03-22T17:22:15.489Z,26.80
2019-03-22T17:24:42.166Z,32.00
2019-03-22T17:27:08.895Z,34.73
2019-03-22T17:29:35.664Z,34.90
2019-03-22T17:32:02.318Z,29.40
2019-03-22T17:34:29.048Z,33.53
2019-03-22T17:36:55.843Z,39.70
2019-03-22T17:39:22.542Z,37.27
2019-03-22T17:41:49.250Z,41.90
2019-03-22T17:44:15.954Z,38.50
2019-03-22T17:46:42.614Z,30.63
2019-03-22T17:49:09.341Z,40.97
2019-03-22T17:51:36.177Z,33.40
2019-03-22T17:54:02.911Z,36.43
2019-03-22T17:56:29.608Z,41.50
2019-03-22T17:58:56.403Z,34.63
2019-03-22T18:01:23.112Z,46.53
2019-03-22T18:03:49.835Z,45.17
2019-03-22T18:06:16.622Z,54.57
2019-03-22T18:08:43.330Z,41.63
2019-03-22T18:11:10.166Z,45.03
2019-03-22T18:13:36.949Z,49.83
2019-03-22T18:16:03.662Z,49.23
2019-03-22T18:18:30.480Z,43.43
2019-03-22T18:20:57.251Z,41.97
2019-03-22T18:23:35.141Z,43.67
2019-03-22T18:25:53.336Z,43.13
2019-03-22T18:28:20.174Z,51.10
2019-03-22T18:30:46.866Z,50.23
2019-03-22T18:33:13.575Z,49.17
2019-03-22T18:35:41.083Z,48.70
2019-03-22T18:38:09.144Z,38.77
2019-03-22T18:40:36.175Z,50.73
2019-03-22T18:43:03.093Z,44.43
2019-03-22T18:45:29.811Z,48.23
2019-03-22T18:47:57.952Z,47.43
2019-03-22T18:50:26.055Z,42.03
2019-03-22T18:52:54.380Z,46.47
2019-03-22T18:55:22.009Z,44.60
2019-03-22T18:57:48.783Z,40.13
2019-03-22T19:00:15.437Z,38.43
2019-03-22T19:02:42.172Z,43.13
2019-03-22T19:05:08.954Z,45.63
2019-03-22T19:07:35.660Z,44.77
2019-03-22T19:10:02.414Z,42.93
2019-03-22T19:12:29.726Z,37.87
2019-03-22T19:14:56.554Z,44.70
2019-03-22T19:17:23.294Z,45.10
2019-03-22T19:19:50.084Z,51.37
2019-03-22T19:22:16.788Z,45.67
2019-03-22T19:24:44.204Z,43.17
2019-03-22T19:27:11.354Z,41.37
2019-03-22T19:29:38.038Z,46.57
2019-03-22T19:32:13.362Z,45.77
2019-03-22T19:34:33.082Z,49.37
2019-03-22T19:36:59.776Z,32.77
2019-03-22T19:39:26.433Z,40.87
2019-03-22T19:41:53.237Z,41.03
2019-03-22T19:44:19.944Z,41.60
2019-03-22T19:46:46.681Z,40.27
2019-03-22T19:49:13.486Z,41.67
2019-03-22T19:51:40.199Z,49.63
2019-03-22T19:54:06.916Z,38.50
2019-03-22T19:56:33.713Z,40.87
2019-03-22T19:59:00.423Z,40.67
2019-03-22T20:01:27.201Z,45.77
2019-03-22T20:03:54.019Z,48.53
2019-03-22T20:06:20.761Z,46.43
2019-03-22T20:08:47.540Z,42.50
2019-03-22T20:11:14.634Z,46.57
2019-03-22T20:13:41.400Z,43.67
2019-03-22T20:16:08.141Z,45.70
2019-03-22T20:18:34.911Z,50.30
2019-03-22T20:21:01.620Z,47.97
2019-03-22T20:23:28.337Z,40.20
2019-03-22T20:25:55.148Z,45.63
2019-03-22T20:28:21.856Z,60.13
2019-03-22T20:30:48.626Z,45.67
2019-03-22T20:33:15.413Z,44.37
2019-03-22T20:35:42.257Z,40.30
2019-03-22T20:38:08.959Z,47.07
2019-03-22T20:40:36.271Z,44.70
2019-03-22T20:43:03.042Z,53.90
2019-03-22T20:45:29.806Z,46.57
2019-03-22T20:47:56.606Z,60.30
2019-03-22T20:50:23.325Z,52.67
2019-03-22T20:52:50.210Z,60.57
2019-03-22T20:55:17.002Z,60.97
2019-03-22T20:57:43.711Z,70.60
2019-03-22T21:00:10.464Z,75.70
2019-03-22T21:02:37.252Z,83.27
2019-03-22T21:05:03.947Z,78.30
2019-03-22T21:07:30.697Z,74.83
2019-03-22T21:09:57.460Z,76.97
2019-03-22T21:12:24.184Z,80.80
2019-03-22T21:14:50.883Z,70.97
2019-03-22T21:17:17.679Z,84.83
2019-03-22T21:19:44.381Z,85.00
2019-03-22T21:22:11.117Z,81.07
2019-03-22T21:24:38.022Z,65.10
2019-03-22T21:27:14.843Z,75.80
2019-03-22T21:29:43.488Z,77.73
2019-03-22T21:32:01.594Z,75.73
2019-03-22T21:34:28.336Z,70.83
2019-03-22T21:36:55.077Z,68.97
2019-03-22T21:39:21.839Z,73.87
2019-03-22T21:41:48.573Z,70.33
2019-03-22T21:44:15.305Z,70.33
2019-03-22T21:46:42.080Z,72.27
2019-03-22T21:49:08.860Z,63.60
2019-03-22T21:51:35.569Z,59.83
2019-03-22T21:54:02.246Z,58.87
2019-03-22T21:56:29.136Z,68.63
2019-03-22T21:58:55.885Z,67.97
2019-03-22T22:01:22.663Z,63.83
2019-03-22T22:03:49.316Z,62.27
2019-03-22T22:06:16.149Z,56.77
2019-03-22T22:08:43.047Z,61.50
2019-03-22T22:11:09.835Z,59.17
2019-03-22T22:13:36.663Z,65.77
2019-03-22T22:16:03.513Z,64.37
2019-03-22T22:18:30.349Z,70.30
2019-03-22T22:20:57.105Z,70.97
2019-03-22T22:23:23.969Z,70.30
2019-03-22T22:25:50.896Z,60.20
2019-03-22T22:28:17.726Z,61.67
2019-03-22T22:30:45.237Z,67.23
2019-03-22T22:33:12.025Z,71.23
2019-03-22T22:35:38.860Z,69.20
2019-03-22T22:38:05.709Z,67.17
2019-03-22T22:40:32.534Z,65.17
2019-03-22T22:42:59.319Z,71.37
2019-03-22T22:45:26.076Z,69.73
2019-03-22T22:47:52.832Z,74.43
2019-03-22T22:50:19.529Z,62.37
2019-03-22T22:52:46.343Z,63.67
2019-03-22T22:55:13.032Z,80.73
2019-03-22T22:57:39.716Z,63.80
2019-03-22T23:00:06.500Z,65.07
2019-03-22T23:02:33.194Z,62.73
2019-03-22T23:04:59.920Z,66.60
2019-03-22T23:07:26.699Z,75.43
2019-03-22T23:09:53.422Z,71.33
2019-03-22T23:12:20.123Z,78.57
2019-03-22T23:14:47.113Z,79.93
2019-03-22T23:17:13.865Z,65.53
2019-03-22T23:19:40.669Z,72.33
2019-03-22T23:22:07.405Z,68.07
2019-03-22T23:24:34.110Z,69.43
2019-03-22T23:27:00.848Z,68.63
2019-03-22T23:29:27.670Z,69.97
2019-03-22T23:31:54.370Z,79.63
2019-03-22T23:34:21.024Z,91.63
2019-03-22T23:36:47.828Z,83.23
2019-03-22T23:39:14.547Z,69.03
2019-03-22T23:41:41.249Z,71.53
2019-03-22T23:44:08.020Z,72.60
2019-03-22T23:46:34.763Z,76.87
2019-03-22T23:49:01.524Z,71.67
2019-03-22T23:51:28.552Z,77.10
2019-03-22T23:53:55.293Z,75.23
2019-03-22T23:56:22.042Z,70.07
2019-03-22T23:58:48.847Z,74.97
